Time;durP1;ratioP1;P1;durP2;ratioP2;P2;SDS_P1;SDS_P2;PMS_P1;PMS_P2;Temp;Humidity;BMP_temperature;BMP_pressure;BME280_temperature;BME280_humidity;BME280_pressure;Samples;Min_cycle;Max_cycle;Signal;HPM_P1;HPM_P2
2023/02/01 00:04:05;;;;;;;0.20;0.00;;;6.10;99.90;;;;;;21239213;27;20432;-70
2023/02/01 00:14:11;;;;;;;0.20;0.10;;;5.70;99.90;;;;;;21239180;27;20393;-70
2023/02/01 00:24:14;;;;;;;0.20;0.10;;;5.40;99.90;;;;;;21203002;27;20508;-69
2023/02/01 00:34:20;;;;;;;0.20;0.10;;;4.90;99.90;;;;;;21211144;27;20448;-69
2023/02/01 00:44:24;;;;;;;0.20;0.10;;;5.50;99.90;;;;;;21161553;27;20413;-69
2023/02/01 00:54:29;;;;;;;0.20;0.10;;;5.50;99.90;;;;;;21216676;27;20393;-70
2023/02/01 01:04:33;;;;;;;0.20;0.10;;;5.80;99.90;;;;;;21235046;27;20893;-68
2023/02/01 01:14:38;;;;;;;0.20;0.10;;;6.40;99.90;;;;;;21234350;27;20503;-69
2023/02/01 01:24:42;;;;;;;0.20;0.10;;;6.40;99.90;;;;;;21215109;27;20415;-69
2023/02/01 01:34:47;;;;;;;0.20;0.10;;;6.50;99.90;;;;;;21213014;27;20760;-69
2023/02/01 01:45:03;;;;;;;0.20;0.10;;;6.20;99.90;;;;;;21213178;27;20511;-68
2023/02/01 01:55:10;;;;;;;0.20;0.10;;;6.20;99.90;;;;;;21213213;27;20456;-68
2023/02/01 02:05:14;;;;;;;0.20;0.10;;;6.20;99.90;;;;;;21231274;27;20409;-69
2023/02/01 02:15:19;;;;;;;0.20;0.10;;;6.20;99.90;;;;;;21211616;28;20455;-68
2023/02/01 02:26:01;;;;;;;0.20;0.10;;;6.20;99.90;;;;;;21211441;28;20410;-69
2023/02/01 02:36:14;;;;;;;0.20;0.10;;;6.30;99.90;;;;;;21228986;28;20401;-69
2023/02/01 03:07:15;;;;;;;0.20;0.10;;;6.60;99.90;;;;;;21226808;27;21276;-68
2023/02/01 03:17:28;;;;;;;0.20;0.10;;;6.50;99.90;;;;;;21244472;27;20415;-69
2023/02/01 03:27:36;;;;;;;0.20;0.10;;;6.40;99.90;;;;;;21224823;27;20439;-69
2023/02/01 03:37:42;;;;;;;0.20;0.10;;;6.40;99.90;;;;;;21241292;27;21000;-68
2023/02/01 03:47:50;;;;;;;0.20;0.10;;;6.40;99.90;;;;;;21241783;27;20463;-69
2023/02/01 03:58:02;;;;;;;0.20;0.10;;;6.80;99.90;;;;;;21204707;27;20510;-68
2023/02/01 04:08:06;;;;;;;0.20;0.10;;;6.70;99.90;;;;;;21239425;27;20498;-69
2023/02/01 04:18:11;;;;;;;0.20;0.10;;;6.40;99.90;;;;;;21239298;27;20450;-69
2023/02/01 04:28:15;;;;;;;0.20;0.10;;;6.50;99.90;;;;;;21238692;27;20944;-69
2023/02/01 04:38:20;;;;;;;0.20;0.10;;;6.50;99.90;;;;;;21218399;27;20952;-68
2023/02/01 04:48:23;;;;;;;0.20;0.10;;;6.50;99.90;;;;;;21233158;27;20455;-68
2023/02/01 04:58:29;;;;;;;0.20;0.00;;;6.30;99.90;;;;;;21235304;27;20536;-68
2023/02/01 05:08:33;;;;;;;0.20;0.10;;;6.30;99.90;;;;;;21212199;27;20450;-69
2023/02/01 05:18:41;;;;;;;0.20;0.10;;;6.30;99.90;;;;;;21230580;27;20453;-68
2023/02/01 05:28:45;;;;;;;0.20;0.10;;;6.20;99.90;;;;;;21201955;27;20905;-69
2023/02/01 05:38:50;;;;;;;0.20;0.10;;;6.30;99.90;;;;;;21129108;28;21047;-68
2023/02/01 05:48:54;;;;;;;0.20;0.10;;;6.30;99.90;;;;;;21146443;28;20440;-69
2023/02/01 05:59:00;;;;;;;0.20;0.10;;;6.30;99.90;;;;;;21127653;28;20448;-69
2023/02/01 06:09:02;;;;;;;0.20;0.10;;;5.90;99.90;;;;;;21145625;28;21021;-67
2023/02/01 06:19:08;;;;;;;0.20;0.10;;;5.90;99.90;;;;;;21126319;28;20410;-69
2023/02/01 06:29:12;;;;;;;0.20;0.10;;;5.90;99.90;;;;;;21126776;28;20435;-69
2023/02/01 06:39:17;;;;;;;0.20;0.10;;;5.90;99.90;;;;;;21142768;28;20449;-69
2023/02/01 06:49:21;;;;;;;0.20;0.10;;;6.00;99.90;;;;;;21159024;28;20513;-69
2023/02/01 06:59:26;;;;;;;0.20;0.10;;;6.10;99.90;;;;;;21137337;28;20524;-69
2023/02/01 07:09:30;;;;;;;0.20;0.10;;;6.30;99.90;;;;;;21154059;28;20534;-68
2023/02/01 07:19:35;;;;;;;0.20;0.10;;;6.30;99.90;;;;;;21157541;28;20406;-69
2023/02/01 07:29:39;;;;;;;0.20;0.10;;;6.30;99.90;;;;;;21137242;28;20444;-68
2023/02/01 07:39:45;;;;;;;0.20;0.05;;;6.30;99.90;;;;;;21136780;28;20450;-70
2023/02/01 07:49:48;;;;;;;0.20;0.10;;;6.40;99.90;;;;;;21136323;28;20468;-70
2023/02/01 08:10:15;;;;;;;0.20;0.10;;;6.80;99.90;;;;;;21151562;28;20960;-69
2023/02/01 08:20:22;;;;;;;0.20;0.10;;;7.50;99.90;;;;;;21116980;27;20402;-68
2023/02/01 08:30:28;;;;;;;0.20;0.10;;;8.00;99.90;;;;;;21151656;28;20719;-68
2023/02/01 08:40:33;;;;;;;0.20;0.10;;;8.40;99.90;;;;;;21150643;28;20742;-69
2023/02/01 08:50:37;;;;;;;0.20;0.10;;;8.90;99.90;;;;;;21150875;28;20402;-67
2023/02/01 09:00:42;;;;;;;0.20;0.10;;;9.40;99.90;;;;;;21113680;28;20803;-69
2023/02/01 09:10:46;;;;;;;0.20;0.10;;;10.00;99.90;;;;;;21140359;27;20394;-69
2023/02/01 09:20:51;;;;;;;0.20;0.10;;;10.50;99.90;;;;;;21111572;28;20486;-67
2023/02/01 09:30:57;;;;;;;0.20;0.10;;;10.80;99.90;;;;;;21146422;28;20411;-68
2023/02/01 09:41:07;;;;;;;0.20;0.10;;;11.30;99.90;;;;;;21127973;28;20414;-67
2023/02/01 09:51:17;;;;;;;0.20;0.00;;;11.80;99.90;;;;;;21144713;28;20445;-68
2023/02/01 10:01:24;;;;;;;0.20;0.10;;;12.00;99.90;;;;;;21133514;28;20414;-68
2023/02/01 10:11:47;;;;;;;0.20;0.00;;;12.50;99.90;;;;;;21124786;28;20734;-69
2023/02/01 10:21:56;;;;;;;0.20;0.00;;;13.10;99.90;;;;;;21123436;28;20761;-68
2023/02/01 10:32:00;;;;;;;0.20;0.00;;;13.50;99.90;;;;;;21143292;28;20455;-68
2023/02/01 10:42:05;;;;;;;0.20;0.10;;;13.70;99.90;;;;;;21123475;28;20421;-68
2023/02/01 10:52:15;;;;;;;0.20;0.10;;;14.10;99.90;;;;;;21123392;28;20402;-68
2023/02/01 11:02:29;;;;;;;0.20;0.10;;;14.90;99.90;;;;;;21143025;28;20471;-68
2023/02/01 11:12:35;;;;;;;0.20;0.10;;;14.90;99.90;;;;;;21142514;28;20475;-68
2023/02/01 11:22:47;;;;;;;0.20;0.10;;;15.10;99.90;;;;;;21152752;28;20436;-69
2023/02/01 11:32:51;;;;;;;0.20;0.10;;;15.50;99.90;;;;;;21155004;28;20918;-68
2023/02/01 11:42:58;;;;;;;0.20;0.10;;;16.30;99.90;;;;;;21155317;28;20406;-68
2023/02/01 11:53:21;;;;;;;0.20;0.10;;;16.40;99.90;;;;;;21153436;28;20395;-68
2023/02/01 12:03:53;;;;;;;0.20;0.00;;;16.10;99.90;;;;;;21152766;28;20398;-68
2023/02/01 12:14:09;;;;;;;0.20;0.10;;;17.20;99.90;;;;;;21149211;28;20494;-67
2023/02/01 12:24:40;;;;;;;0.20;0.10;;;17.00;99.90;;;;;;21133772;28;20410;-67
2023/02/01 12:35:08;;;;;;;0.20;0.10;;;17.70;99.90;;;;;;21148526;28;20753;-70
2023/02/01 12:45:21;;;;;;;0.20;0.10;;;17.30;99.90;;;;;;21141886;28;20998;-68
2023/02/01 12:55:29;;;;;;;0.20;0.10;;;18.80;99.90;;;;;;21132053;28;20633;-66
2023/02/01 13:05:41;;;;;;;0.20;0.10;;;19.60;99.90;;;;;;21147633;28;20966;-67
2023/02/01 13:15:49;;;;;;;0.20;0.08;;;18.40;99.90;;;;;;21146782;28;20881;-68
2023/02/01 13:25:55;;;;;;;0.20;0.10;;;18.40;99.90;;;;;;21144743;28;20410;-68
2023/02/01 13:36:35;;;;;;;0.20;0.10;;;19.10;99.90;;;;;;21143085;28;20494;-69
2023/02/01 13:46:47;;;;;;;0.20;0.10;;;19.00;99.90;;;;;;21142551;28;20402;-67
2023/02/01 13:56:51;;;;;;;0.20;0.00;;;19.80;99.90;;;;;;21161858;27;20383;-68
2023/02/01 14:06:57;;;;;;;0.20;0.00;;;20.10;99.90;;;;;;21161170;27;20506;-68
2023/02/01 14:17:35;;;;;;;0.20;0.00;;;20.00;99.90;;;;;;21134466;28;20434;-67
2023/02/01 14:27:41;;;;;;;0.20;0.10;;;20.80;99.90;;;;;;21227931;28;20457;-67
2023/02/01 14:37:45;;;;;;;0.20;0.10;;;20.60;99.90;;;;;;21207819;28;20491;-66
2023/02/01 14:47:54;;;;;;;0.20;0.00;;;20.70;99.90;;;;;;21220000;28;21157;-68
2023/02/01 14:58:00;;;;;;;0.20;0.00;;;19.80;99.90;;;;;;21235906;27;20413;-67
2023/02/01 15:08:16;;;;;;;0.20;0.00;;;19.80;99.90;;;;;;21190418;27;20437;-67
2023/02/01 15:18:21;;;;;;;0.20;0.07;;;19.50;99.90;;;;;;21153761;28;20398;-69
2023/02/01 15:28:28;;;;;;;0.20;0.10;;;19.30;99.90;;;;;;21152733;28;20398;-67
2023/02/01 15:38:40;;;;;;;0.20;0.00;;;19.10;99.90;;;;;;21150692;28;20418;-66
2023/02/01 15:48:49;;;;;;;0.20;0.03;;;17.40;99.90;;;;;;21214086;27;20463;-68
2023/02/01 15:58:55;;;;;;;0.20;0.10;;;16.60;99.90;;;;;;21204447;27;20415;-67
2023/02/01 16:09:13;;;;;;;0.20;0.10;;;16.00;99.90;;;;;;21190568;27;20429;-67
2023/02/01 16:19:16;;;;;;;0.20;0.10;;;15.70;99.90;;;;;;21224151;27;20440;-67
2023/02/01 16:29:21;;;;;;;0.20;0.00;;;15.50;99.90;;;;;;21230987;27;20409;-68
2023/02/01 16:39:27;;;;;;;0.20;0.10;;;14.60;99.90;;;;;;21234081;27;20397;-67
2023/02/01 16:49:32;;;;;;;0.20;0.10;;;13.70;99.90;;;;;;21206959;27;20399;-68
2023/02/01 16:59:36;;;;;;;0.20;0.07;;;13.00;99.90;;;;;;21191390;27;20748;-69
2023/02/01 17:09:41;;;;;;;0.20;0.10;;;12.90;99.90;;;;;;21170797;27;20403;-67
2023/02/01 17:19:47;;;;;;;0.20;0.10;;;12.40;99.90;;;;;;21209019;27;21058;-68
2023/02/01 17:29:53;;;;;;;0.20;0.10;;;11.50;99.90;;;;;;21202505;27;20417;-67
2023/02/01 17:39:58;;;;;;;0.20;0.10;;;10.80;99.90;;;;;;21212295;27;20462;-67
2023/02/01 17:50:03;;;;;;;0.20;0.10;;;10.40;99.90;;;;;;21229823;27;20551;-67
2023/02/01 18:00:08;;;;;;;0.20;0.10;;;10.10;99.90;;;;;;21198916;27;20448;-67
2023/02/01 18:10:13;;;;;;;0.20;0.10;;;10.00;99.90;;;;;;21208611;27;20401;-68
2023/02/01 18:20:27;;;;;;;0.20;0.00;;;9.60;99.90;;;;;;21205843;27;20425;-68
2023/02/01 18:30:34;;;;;;;0.20;0.10;;;9.30;99.90;;;;;;21239294;27;20907;-67
2023/02/01 18:40:43;;;;;;;0.20;0.10;;;9.10;99.90;;;;;;21221971;27;20513;-67
2023/02/01 18:50:55;;;;;;;0.20;0.10;;;8.80;99.90;;;;;;21240476;27;20985;-67
2023/02/01 19:01:07;;;;;;;0.20;0.10;;;8.70;99.90;;;;;;21243126;27;20409;-68
2023/02/01 19:11:17;;;;;;;0.20;0.10;;;8.60;99.90;;;;;;21222841;27;20393;-65
2023/02/01 19:21:21;;;;;;;0.20;0.10;;;8.00;99.90;;;;;;21239694;27;20872;-67
2023/02/01 19:31:27;;;;;;;0.20;0.00;;;8.00;99.90;;;;;;21216734;27;20389;-70
2023/02/01 19:41:31;;;;;;;0.20;0.10;;;7.80;99.90;;;;;;21227805;27;20465;-66
2023/02/01 19:51:37;;;;;;;0.20;0.10;;;8.00;99.90;;;;;;21234596;27;20389;-67
2023/02/01 20:01:43;;;;;;;0.20;0.10;;;7.80;99.90;;;;;;21234438;27;20813;-68
2023/02/01 20:11:49;;;;;;;0.50;0.50;;;7.90;99.90;;;;;;21215896;27;20393;-68
2023/02/01 20:21:53;;;;;;;0.20;0.10;;;7.90;99.90;;;;;;21233278;27;20438;-68
2023/02/01 20:31:58;;;;;;;0.20;0.10;;;7.60;99.90;;;;;;21232840;27;20851;-67
2023/02/01 20:42:02;;;;;;;0.20;0.10;;;8.00;99.90;;;;;;21213981;27;20835;-68
2023/02/01 20:52:07;;;;;;;0.20;0.10;;;7.80;99.90;;;;;;21230656;27;20409;-68
2023/02/01 21:02:19;;;;;;;0.20;0.10;;;7.90;99.90;;;;;;21230783;27;20435;-68
2023/02/01 21:12:26;;;;;;;0.20;0.10;;;8.10;99.90;;;;;;21223542;27;21092;-69
2023/02/01 21:22:30;;;;;;;0.20;0.10;;;7.60;99.90;;;;;;21214812;27;20405;-69
2023/02/01 21:32:36;;;;;;;0.20;0.10;;;7.50;99.90;;;;;;21231009;27;20484;-69
2023/02/01 21:42:42;;;;;;;0.20;0.10;;;7.20;99.90;;;;;;21232214;27;20712;-67
2023/02/01 21:52:47;;;;;;;0.20;0.10;;;7.40;99.90;;;;;;21213742;27;20389;-69
2023/02/01 22:02:51;;;;;;;0.20;0.10;;;7.40;99.90;;;;;;21212559;27;20803;-69
2023/02/01 22:12:56;;;;;;;0.20;0.10;;;7.30;99.90;;;;;;21231494;27;20389;-68
2023/02/01 22:23:00;;;;;;;0.20;0.10;;;7.80;99.90;;;;;;21212555;27;20465;-68
2023/02/01 22:33:05;;;;;;;0.20;0.00;;;8.10;99.90;;;;;;21180835;28;20505;-69
2023/02/01 22:43:12;;;;;;;0.20;0.10;;;8.20;99.90;;;;;;21144455;28;20448;-68
2023/02/01 22:53:18;;;;;;;0.20;0.20;;;8.30;99.90;;;;;;21144894;28;20414;-67
2023/02/01 23:03:22;;;;;;;0.20;0.10;;;8.20;99.90;;;;;;21201142;27;20492;-67
2023/02/01 23:13:27;;;;;;;0.20;0.10;;;8.10;99.90;;;;;;21214433;27;20739;-67
2023/02/01 23:23:31;;;;;;;0.20;0.10;;;8.00;99.90;;;;;;21208588;27;20413;-68
2023/02/01 23:33:37;;;;;;;0.20;0.10;;;8.00;99.90;;;;;;21247687;27;20393;-67
2023/02/01 23:44:00;;;;;;;0.20;0.10;;;8.30;99.90;;;;;;21272327;27;20411;-68
2023/02/01 23:54:06;;;;;;;0.20;0.10;;;8.30;99.90;;;;;;21249607;27;21236;-67
